Ada, OH (45810)

5:32 AM EST on February 08, 2016 (GMT -0500)
Ada | | Change Station
CLOSE
Current Station
Personal Weather Station
Location: Ada, OH
Elevation: 912 ft
Nearby Weather Stations
Active Advisory: Special Statement

Elev 912 ft 40.82 °N, 83.86 °W | Updated 3 seconds ago

Overcast
Overcast
34.9 °F
Feels Like 35 °F
N
0.0
Wind Variable Wind from SSW
Gusts 0.0 mph

Today
High -- | Low -- °F
--% Chance of Precip.
Yesterday
High -- | Low -- °F
Precip. -- in
Pressure 29.65 in
Visibility 10.0 miles
Clouds Overcast 9500 ft
Windchill 35 °F
Dew Point 32 °F
Humidity 88%
Rainfall 0.00 in
Snow Depth Not available.
7:38 AM 6:00 PM
Waning Crescent, 0% visible
METAR KAOH 080953Z AUTO 23003KT 10SM OVC095 02/00 A2964 RMK AO2 SLP041 T00220000 $
Pressure 29.65 in
Visibility 10.0 miles
Clouds Overcast 9500 ft
Windchill 35 °F
Dew Point 32 °F
Humidity 88%
Rainfall 0.00 in
Snow Depth Not available.
7:38 AM 6:00 PM
Waning Crescent, 0% visible
METAR KAOH 080953Z AUTO 23003KT 10SM OVC095 02/00 A2964 RMK AO2 SLP041 T00220000 $

10-Day Weather Forecast

Almanac

Astronomy

Feb. 08, 2016 Rise Set
Actual Time
Civil Twilight
Nautical Twilight
Astronomical Twilight
Moon
Length of Visible Light
Length of Day
Tomorrow will be .
, % of the Moon is Illuminated

Today's Extremes

State Highs State Lows

Community

WunderPhotos

Upload Photos

1,891,420 photos uploaded!

WunderBlog® & News

Nearby

Air Quality

  Air Quality AQ Index Pollutant
Not available.

Snow Depth

Station Depth Elevation

Earthquake Activity

City Distance Mag. Time & Date
Minimum magnitude displayed is 2.5.

Coastal Water Temperatures

Place Temperature

Stations

Nearby Weather Stations

Station Location Temp. Windchill Dew Point Humidity Wind Precip. Elev Updated Type
                   

Watches & Warnings

Special Statement
Issued: 4:39 AM EST Feb. 8, 2016 – National Weather Service

... Accumulating snow likely tonight...

Rain showers this morning and afternoon will transition over to
snow showers this evening. Occasional snow showers will then
continue tonight through Tuesday night. Snow accumulations of 1 to
3 inches are expected over a 36 hour period tonight through
Tuesday night. Travel difficulties are possible due to reduced
visibilities and some slick spots on highways.